Terminal Aerodrome Forecast
Issued by NWS St Louis, MO

Home | Current Version | Previous Version | Text Only | Print | Product List | Glossary On
Versions: 1 2 3 4 5 6 7 8 9 10 11 12 13 14 15 16
901
FTUS43 KLSX 091731
TAFCOU
TAF
KCOU 091731Z 0918/1018 31015KT P6SM SCT026 BKN060
      TEMPO 0918/0920 BKN026
     FM092000 31016G24KT P6SM SCT035
     FM100600 32011KT P6SM FEW250
     FM101600 31007KT P6SM BKN100=

USA.gov is the U.S. government's official web portal to all federal, state and local government web resources and services.